Time;durP1;ratioP1;P1;durP2;ratioP2;P2;SDS_P1;SDS_P2;PMS_P1;PMS_P2;Temp;Humidity;BMP_temperature;BMP_pressure;BME280_temperature;BME280_humidity;BME280_pressure;Samples;Min_cycle;Max_cycle;Signal;HPM_P1;HPM_P2
2021/01/09 00:00:17;;;;;;;28.70;14.23;;;;;;;-0.38;79.14;96415.13;5052942;28;20540;-72
2021/01/09 00:02:43;;;;;;;32.10;14.40;;;;;;;-0.42;79.17;96408.63;5052869;28;20052;-72
2021/01/09 00:05:11;;;;;;;27.25;14.23;;;;;;;-0.50;79.07;96406.41;5053074;28;20041;-71
2021/01/09 00:07:37;;;;;;;31.55;15.27;;;;;;;-0.59;79.28;96407.88;5052237;28;20048;-72
2021/01/09 00:10:06;;;;;;;29.35;14.20;;;;;;;-0.55;79.41;96403.66;5052996;28;20516;-72
2021/01/09 00:12:33;;;;;;;27.63;13.80;;;;;;;-0.49;79.23;96402.66;5052475;28;20053;-71
2021/01/09 00:14:59;;;;;;;32.85;15.35;;;;;;;-0.64;79.36;96405.13;5055023;28;20048;-72
2021/01/09 00:17:25;;;;;;;30.48;15.50;;;;;;;-0.71;79.54;96417.88;5052137;28;20116;-72
2021/01/09 00:19:51;;;;;;;30.13;14.23;;;;;;;-0.72;79.76;96408.22;5052930;28;20041;-72
2021/01/09 00:22:17;;;;;;;27.45;14.38;;;;;;;-0.66;79.78;96423.28;5052327;28;20128;-72
2021/01/09 00:24:43;;;;;;;30.02;14.65;;;;;;;-0.62;79.27;96413.72;5052680;28;20467;-72
2021/01/09 00:27:10;;;;;;;28.65;14.38;;;;;;;-0.70;79.46;96416.81;5052223;28;20049;-72
2021/01/09 00:29:37;;;;;;;28.30;14.75;;;;;;;-0.72;79.67;96414.38;5052010;28;20452;-72
2021/01/09 00:32:04;;;;;;;28.25;14.60;;;;;;;-0.69;79.49;96424.56;5052929;28;20044;-72
2021/01/09 00:34:30;;;;;;;29.52;14.15;;;;;;;-0.63;79.47;96412.09;5051950;28;20064;-72
2021/01/09 00:36:55;;;;;;;26.17;13.57;;;;;;;-0.70;79.38;96416.81;5052788;28;20497;-72
2021/01/09 00:39:21;;;;;;;31.67;15.20;;;;;;;-0.69;79.23;96421.09;5051612;28;20094;-72
2021/01/09 00:41:47;;;;;;;32.05;15.68;;;;;;;-0.88;79.78;96423.22;5052964;28;20041;-72
2021/01/09 00:44:14;;;;;;;30.85;14.75;;;;;;;-0.73;79.57;96419.94;5051844;28;20128;-72
2021/01/09 00:46:40;;;;;;;31.00;14.80;;;;;;;-0.61;79.29;96420.69;5053974;28;20132;-72
2021/01/09 00:49:06;;;;;;;30.60;15.02;;;;;;;-0.61;78.85;96415.34;5051996;28;20390;-72
2021/01/09 00:51:32;;;;;;;32.10;15.32;;;;;;;-0.56;78.66;96418.09;5052045;28;20129;-72
2021/01/09 00:53:58;;;;;;;32.90;15.43;;;;;;;-0.66;78.92;96425.97;5052835;28;20124;-72
2021/01/09 00:56:25;;;;;;;28.95;13.98;;;;;;;-0.57;78.60;96419.16;5051303;28;20052;-72
2021/01/09 00:58:51;;;;;;;30.35;14.65;;;;;;;-0.57;78.68;96416.47;5052744;28;20052;-72
2021/01/09 01:01:18;;;;;;;30.58;13.98;;;;;;;-0.53;78.40;96420.25;5050442;28;20519;-72
2021/01/09 01:03:44;;;;;;;30.02;14.38;;;;;;;-0.56;78.54;96420.75;5052527;28;20504;-72
2021/01/09 01:06:10;;;;;;;28.08;13.98;;;;;;;-0.57;78.60;96419.16;5051087;28;20500;-72
2021/01/09 01:08:36;;;;;;;29.33;13.60;;;;;;;-0.50;78.51;96425.13;5052238;28;20049;-72
2021/01/09 01:11:05;;;;;;;29.67;15.00;;;;;;;-0.67;78.58;96422.47;5051438;28;20053;-72
2021/01/09 01:13:31;;;;;;;32.85;15.15;;;;;;;-0.59;78.45;96419.38;5051618;28;20107;-72
2021/01/09 01:15:57;;;;;;;28.17;14.43;;;;;;;-0.53;78.32;96425.59;5053648;28;20412;-72
2021/01/09 01:18:24;;;;;;;28.83;14.38;;;;;;;-0.57;78.44;96422.63;5050820;28;20063;-72
2021/01/09 01:20:50;;;;;;;30.13;14.45;;;;;;;-0.58;78.48;96422.84;5052316;28;20056;-72
2021/01/09 01:23:16;;;;;;;29.52;14.57;;;;;;;-0.47;78.34;96421.97;5050707;28;20053;-72
2021/01/09 01:25:44;;;;;;;29.30;13.73;;;;;;;-0.43;78.09;96428.44;5052289;28;20407;-72
2021/01/09 01:28:10;;;;;;;29.23;13.70;;;;;;;-0.53;78.22;96428.28;5051344;28;20132;-72
2021/01/09 01:30:36;;;;;;;27.90;14.10;;;;;;;-0.53;78.23;96428.28;5052016;28;20052;-72
2021/01/09 01:33:02;;;;;;;28.85;13.68;;;;;;;-0.52;78.34;96429.94;5050861;28;20098;-73
2021/01/09 01:35:29;;;;;;;28.73;14.60;;;;;;;-0.48;77.95;96432.91;5051186;28;20045;-72
2021/01/09 01:37:55;;;;;;;29.65;14.50;;;;;;;-0.54;78.19;96429.34;5051685;28;20045;-72
2021/01/09 01:40:23;;;;;;;28.80;13.70;;;;;;;-0.48;78.08;96425.69;5050637;28;20435;-72
2021/01/09 01:42:49;;;;;;;29.77;14.45;;;;;;;-0.47;77.85;96432.66;5050571;28;20648;-72
2021/01/09 01:45:15;;;;;;;29.02;15.02;;;;;;;-0.41;77.63;96431.69;5069448;28;20051;-72
2021/01/09 01:47:43;;;;;;;32.53;15.65;;;;;;;-0.49;77.63;96429.41;5071738;28;20055;-72
2021/01/09 01:50:11;;;;;;;31.10;14.45;;;;;;;-0.52;77.71;96440.63;5070105;28;20419;-72
2021/01/09 01:52:37;;;;;;;32.85;14.23;;;;;;;-0.51;77.77;96442.25;5071596;28;20052;-72
2021/01/09 01:55:04;;;;;;;26.95;13.77;;;;;;;-0.58;77.76;96446.94;5070279;28;20041;-72
2021/01/09 01:57:31;;;;;;;30.15;14.68;;;;;;;-0.53;77.98;96444.31;5071233;28;20094;-72
2021/01/09 01:59:57;;;;;;;30.13;14.27;;;;;;;-0.55;78.02;96443.78;5070876;28;20040;-72
2021/01/09 02:09:10;;;;;;;29.65;13.70;;;;;;;-0.42;77.69;96440.75;5066354;28;20052;-72
2021/01/09 02:11:43;;;;;;;29.48;15.23;;;;;;;-0.42;77.61;96445.28;5050218;28;20056;-69
2021/01/09 02:14:15;;;;;;;32.38;14.55;;;;;;;-0.39;77.64;96437.59;5050932;28;20048;-71
2021/01/09 02:16:43;;;;;;;28.50;14.50;;;;;;;-0.40;77.48;96427.94;5050377;28;20131;-73
2021/01/09 02:19:09;;;;;;;29.55;15.02;;;;;;;-0.38;77.53;96431.19;5050947;28;20052;-72
2021/01/09 02:21:39;;;;;;;31.15;14.63;;;;;;;-0.44;77.62;96434.84;5050171;28;20045;-73
2021/01/09 02:24:15;;;;;;;27.90;14.02;;;;;;;-0.43;77.61;96433.78;5050502;28;20056;-72
2021/01/09 02:26:41;;;;;;;30.40;15.00;;;;;;;-0.34;77.43;96437.66;5050224;28;20063;-72
2021/01/09 02:29:08;;;;;;;30.13;14.63;;;;;;;-0.31;77.26;96434.50;5049887;28;20115;-72
2021/01/09 02:31:39;;;;;;;30.40;15.55;;;;;;;-0.30;77.20;96433.44;5050965;28;20504;-72
2021/01/09 02:34:09;;;;;;;28.75;13.70;;;;;;;-0.42;77.39;96434.59;5049543;28;20122;-72
2021/01/09 02:36:36;;;;;;;31.58;14.23;;;;;;;-0.38;77.29;96431.19;5050968;28;20087;-72
2021/01/09 02:39:02;;;;;;;28.70;14.27;;;;;;;-0.35;77.14;96433.38;5050606;28;20045;-72
2021/01/09 02:41:31;;;;;;;32.58;15.13;;;;;;;-0.47;77.14;96432.66;5070389;28;20036;-72
2021/01/09 02:44:05;;;;;;;33.25;15.13;;;;;;;-0.49;77.58;96445.47;5071008;28;20051;-72
2021/01/09 02:46:31;;;;;;;34.85;15.25;;;;;;;-0.55;77.69;96425.84;5069910;28;20407;-71
2021/01/09 02:48:57;;;;;;;33.90;14.75;;;;;;;-0.50;77.59;96433.16;5070261;28;20044;-72
2021/01/09 02:51:23;;;;;;;30.85;14.65;;;;;;;-0.54;77.41;96434.69;5069704;28;20057;-72
2021/01/09 02:53:49;;;;;;;29.95;14.63;;;;;;;-0.61;77.50;96442.09;5070658;28;20051;-72
2021/01/09 02:56:15;;;;;;;33.10;15.75;;;;;;;-0.76;77.98;96439.19;5069171;28;20135;-72
2021/01/09 02:58:41;;;;;;;32.53;15.30;;;;;;;-0.69;78.07;96443.28;5070874;28;20052;-72
2021/01/09 03:01:07;;;;;;;34.75;15.90;;;;;;;-0.82;78.28;96441.78;5069155;28;20090;-72
2021/01/09 03:03:33;;;;;;;33.42;16.00;;;;;;;-0.77;78.41;96437.56;5070827;28;20052;-72
2021/01/09 03:05:59;;;;;;;31.00;15.23;;;;;;;-0.83;78.56;96434.81;5069569;28;20040;-72
2021/01/09 03:08:25;;;;;;;31.00;15.05;;;;;;;-0.94;79.10;96438.38;5070008;28;20044;-72
2021/01/09 03:10:51;;;;;;;31.50;15.05;;;;;;;-0.91;79.06;96437.06;5069057;28;20056;-72
2021/01/09 03:13:17;;;;;;;31.05;15.02;;;;;;;-0.88;78.96;96432.06;5069511;28;20052;-72
2021/01/09 03:15:44;;;;;;;33.78;15.65;;;;;;;-0.80;78.81;96439.66;5070296;28;20416;-72
2021/01/09 03:18:10;;;;;;;29.02;14.98;;;;;;;-0.84;78.64;96435.84;5070180;28;20114;-72
2021/01/09 03:20:36;;;;;;;34.47;15.63;;;;;;;-0.88;78.86;96440.06;5070680;28;20072;-72
2021/01/09 03:23:02;;;;;;;32.13;16.33;;;;;;;-0.98;79.27;96441.78;5068918;28;20052;-70
2021/01/09 03:25:28;;;;;;;35.13;15.93;;;;;;;-0.97;79.19;96441.53;5074175;28;20064;-72
2021/01/09 03:27:54;;;;;;;30.30;15.40;;;;;;;-0.84;78.88;96441.19;5073442;28;20044;-72
2021/01/09 03:30:20;;;;;;;33.20;15.20;;;;;;;-0.84;78.78;96440.38;5073929;28;20496;-72
2021/01/09 03:32:47;;;;;;;33.45;16.00;;;;;;;-0.86;78.78;96440.63;5073435;28;20408;-72
2021/01/09 03:35:13;;;;;;;31.60;15.88;;;;;;;-0.86;78.58;96445.16;5073490;28;20048;-72
2021/01/09 03:37:39;;;;;;;30.83;15.23;;;;;;;-0.90;78.58;96444.84;5073513;28;20051;-72
2021/01/09 03:40:06;;;;;;;33.50;15.98;;;;;;;-0.90;78.65;96447.50;5072188;28;20062;-72
2021/01/09 03:42:33;;;;;;;28.73;15.25;;;;;;;-0.82;78.51;96452.47;5073877;28;20101;-72
2021/01/09 03:44:59;;;;;;;30.40;15.43;;;;;;;-0.76;78.22;96457.91;5073047;28;20509;-72
2021/01/09 03:47:25;;;;;;;32.17;15.77;;;;;;;-0.83;78.27;96450.03;5073347;28;20073;-72
2021/01/09 03:49:51;;;;;;;31.33;15.38;;;;;;;-0.72;78.10;96451.81;5072927;28;20127;-72
2021/01/09 03:52:18;;;;;;;35.85;15.90;;;;;;;-0.66;77.86;96455.38;5073589;28;20044;-72
2021/01/09 03:54:43;;;;;;;29.08;15.23;;;;;;;-0.66;77.72;96458.84;5072716;28;20040;-72
2021/01/09 03:57:09;;;;;;;30.50;14.38;;;;;;;-0.69;77.96;96455.84;5073239;28;20048;-71
2021/01/09 03:59:35;;;;;;;30.55;14.63;;;;;;;-0.60;77.79;96457.88;5072862;28;20106;-72
2021/01/09 04:02:01;;;;;;;30.35;14.85;;;;;;;-0.57;77.45;96464.63;5072910;28;20051;-71
2021/01/09 04:04:27;;;;;;;29.23;15.02;;;;;;;-0.53;77.35;96452.34;5073069;28;20055;-71
2021/01/09 04:06:54;;;;;;;31.35;15.85;;;;;;;-0.45;77.04;96453.81;5072819;28;20060;-72
2021/01/09 04:09:20;;;;;;;32.50;14.35;;;;;;;-0.42;76.93;96446.09;5072453;28;20455;-72
2021/01/09 04:11:46;;;;;;;33.60;14.55;;;;;;;-0.49;77.05;96447.34;5052419;28;20052;-72
2021/01/09 04:14:12;;;;;;;31.48;15.30;;;;;;;-0.42;76.84;96439.94;5053326;28;20091;-72
2021/01/09 04:16:38;;;;;;;29.40;13.25;;;;;;;-0.41;76.75;96430.88;5052237;28;20059;-72
2021/01/09 04:19:04;;;;;;;32.53;14.13;;;;;;;-0.37;76.55;96438.13;5053210;28;20118;-72
2021/01/09 04:21:30;;;;;;;28.10;14.75;;;;;;;-0.40;76.51;96435.97;5052429;28;20056;-71
2021/01/09 04:23:57;;;;;;;29.15;13.63;;;;;;;-0.38;76.52;96436.53;5053023;28;20520;-72
2021/01/09 04:26:23;;;;;;;31.70;14.65;;;;;;;-0.47;76.47;96427.31;5051961;28;20041;-72
2021/01/09 04:28:49;;;;;;;29.92;15.38;;;;;;;-0.48;76.47;96441.72;5052805;28;20048;-72
2021/01/09 04:31:15;;;;;;;32.10;15.50;;;;;;;-0.50;76.73;96438.50;5052431;28;20060;-72
2021/01/09 04:33:42;;;;;;;31.77;15.13;;;;;;;-0.49;76.78;96445.47;5049384;28;20425;-72
2021/01/09 04:36:08;;;;;;;31.63;15.20;;;;;;;-0.47;76.82;96453.22;5051452;28;20044;-71
2021/01/09 04:38:34;;;;;;;35.33;15.40;;;;;;;-0.46;76.72;96455.69;5052194;28;20048;-72
2021/01/09 04:41:01;;;;;;;31.67;15.65;;;;;;;-0.44;76.82;96450.88;5070135;28;20121;-71
2021/01/09 04:43:27;;;;;;;29.70;14.45;;;;;;;-0.42;76.67;96446.09;5071749;28;20412;-72
2021/01/09 04:45:53;;;;;;;32.65;15.27;;;;;;;-0.38;76.58;96452.56;5073201;28;20055;-72
2021/01/09 04:48:20;;;;;;;30.08;15.23;;;;;;;-0.37;76.52;96450.72;5071434;28;20052;-71
2021/01/09 04:50:50;;;;;;;29.15;14.95;;;;;;;-0.38;76.33;96452.56;5072626;28;20044;-72
2021/01/09 04:53:18;;;;;;;29.15;14.57;;;;;;;-0.34;76.32;96452.91;5071852;28;20052;-72
2021/01/09 04:55:45;;;;;;;34.85;15.80;;;;;;;-0.34;76.24;96451.03;5072119;28;20052;-72
2021/01/09 04:58:12;;;;;;;33.53;15.10;;;;;;;-0.36;76.50;96455.03;5072024;28;20102;-71
2021/01/09 05:00:38;;;;;;;32.90;15.82;;;;;;;-0.42;76.34;96467.50;5071377;28;20123;-72
2021/01/09 05:03:04;;;;;;;32.20;16.08;;;;;;;-0.43;76.28;96468.56;5072516;28;20053;-71
2021/01/09 05:05:31;;;;;;;33.53;15.55;;;;;;;-0.65;77.11;96473.03;5070950;28;20045;-72
2021/01/09 05:07:57;;;;;;;36.85;16.05;;;;;;;-0.73;77.59;96476.94;5072627;28;20060;-72
2021/01/09 05:10:23;;;;;;;34.78;16.67;;;;;;;-0.72;77.65;96483.09;5070180;28;20041;-72
2021/01/09 05:12:49;;;;;;;36.83;17.35;;;;;;;-0.82;78.06;96476.53;5072182;28;20052;-72
2021/01/09 05:15:16;;;;;;;33.30;16.35;;;;;;;-0.83;78.23;96476.78;5071320;28;20052;-72
2021/01/09 05:17:42;;;;;;;36.80;16.63;;;;;;;-0.70;77.97;96478.31;5071926;28;20052;-72
2021/01/09 05:20:09;;;;;;;36.17;16.58;;;;;;;-0.63;77.79;96481.63;5071594;28;20049;-71
2021/01/09 05:22:36;;;;;;;33.08;16.67;;;;;;;-0.64;77.76;96474.66;5071397;28;20131;-72
2021/01/09 05:25:04;;;;;;;30.63;16.13;;;;;;;-0.61;77.70;96474.19;5071490;28;20045;-72
2021/01/09 05:27:30;;;;;;;35.97;17.10;;;;;;;-0.54;77.46;96474.81;5071092;28;20392;-72
2021/01/09 05:29:57;;;;;;;37.17;17.48;;;;;;;-0.53;77.17;96479.09;5072312;28;20056;-71
2021/01/09 05:32:24;;;;;;;37.80;16.48;;;;;;;-0.54;77.40;96480.97;5070685;28;20043;-72
2021/01/09 05:34:52;;;;;;;34.83;16.45;;;;;;;-0.48;77.36;96489.88;5071955;28;20040;-72
2021/01/09 05:37:21;;;;;;;33.97;16.42;;;;;;;-0.52;77.09;96488.78;5070594;28;20102;-72
2021/01/09 05:39:49;;;;;;;34.15;16.85;;;;;;;-0.57;77.37;96486.81;5070844;28;20667;-72
2021/01/09 05:42:15;;;;;;;31.63;16.23;;;;;;;-0.52;77.30;96491.44;5071037;28;20045;-72
2021/01/09 05:44:41;;;;;;;39.42;16.98;;;;;;;-0.45;77.25;96491.28;5071171;28;20045;-72
2021/01/09 05:47:08;;;;;;;34.67;17.08;;;;;;;-0.50;77.08;96492.00;5070696;28;20412;-72
2021/01/09 05:49:35;;;;;;;35.63;16.85;;;;;;;-0.62;77.40;96494.78;5070705;28;20053;-72
2021/01/09 05:52:01;;;;;;;35.90;17.30;;;;;;;-0.54;77.32;96490.88;5071324;28;20504;-72
2021/01/09 05:54:34;;;;;;;37.03;16.80;;;;;;;-0.48;77.23;96495.22;5070518;28;20051;-72
2021/01/09 05:57:01;;;;;;;33.85;16.65;;;;;;;-0.50;77.22;96494.69;5071712;28;20508;-72
2021/01/09 05:59:27;;;;;;;33.28;16.58;;;;;;;-0.46;77.14;96495.00;5070407;28;20033;-71
2021/01/09 06:01:58;;;;;;;36.38;17.40;;;;;;;-0.42;77.06;96496.13;5071131;28;20048;-71
2021/01/09 06:04:28;;;;;;;37.38;18.67;;;;;;;-0.42;77.08;96502.28;5065811;28;20048;-72
2021/01/09 06:07:05;;;;;;;35.90;16.55;;;;;;;-0.37;76.73;96506.91;5050516;28;20053;-72
2021/01/09 06:09:35;;;;;;;35.60;18.58;;;;;;;-0.37;76.85;96502.34;5051031;28;20048;-72
2021/01/09 06:12:05;;;;;;;36.55;17.60;;;;;;;-0.38;76.89;96505.28;5050822;28;20048;-72
2021/01/09 06:14:33;;;;;;;36.45;17.15;;;;;;;-0.36;76.71;96509.34;5051559;28;20099;-72
2021/01/09 06:17:01;;;;;;;39.40;17.95;;;;;;;-0.41;76.91;96503.91;5050300;28;20521;-72
2021/01/09 06:19:27;;;;;;;41.78;17.90;;;;;;;-0.42;77.04;96510.31;5050836;28;20116;-72
2021/01/09 06:21:54;;;;;;;36.33;16.65;;;;;;;-0.48;77.01;96511.28;5050429;28;20045;-72
2021/01/09 06:24:22;;;;;;;36.30;17.80;;;;;;;-0.59;77.27;96507.63;5050180;28;20049;-72
2021/01/09 06:26:48;;;;;;;38.00;18.75;;;;;;;-0.70;77.72;96497.03;5050495;28;20037;-72
2021/01/09 06:29:22;;;;;;;35.83;17.23;;;;;;;-0.74;78.06;96506.56;5049988;28;20440;-72
2021/01/09 06:31:52;;;;;;;39.63;18.05;;;;;;;-0.69;77.97;96514.69;5050950;28;20499;-72
2021/01/09 06:34:20;;;;;;;35.58;17.92;;;;;;;-0.66;78.17;96514.22;5049785;28;20088;-72
2021/01/09 06:36:50;;;;;;;35.72;17.08;;;;;;;-0.58;77.82;96524.50;5051191;28;20053;-72
2021/01/09 06:39:17;;;;;;;38.92;18.10;;;;;;;-0.65;77.77;96521.19;5049471;28;20511;-72
2021/01/09 06:41:44;;;;;;;37.30;17.73;;;;;;;-0.63;77.63;96524.41;5050700;28;20045;-72
2021/01/09 06:44:14;;;;;;;33.42;16.52;;;;;;;-0.61;77.69;96522.31;5049904;28;20060;-72
2021/01/09 06:46:41;;;;;;;41.17;19.75;;;;;;;-0.67;77.92;96528.66;5050136;28;20045;-72
2021/01/09 06:49:15;;;;;;;37.22;17.48;;;;;;;-0.64;77.70;96522.78;5050111;28;20041;-72
2021/01/09 06:51:44;;;;;;;39.50;17.67;;;;;;;-0.74;77.98;96534.13;5049752;28;20045;-72
2021/01/09 06:54:21;;;;;;;40.33;19.15;;;;;;;-0.72;78.01;96528.56;5050349;28;20048;-71
2021/01/09 06:56:48;;;;;;;40.03;19.02;;;;;;;-0.81;78.17;96528.13;5049612;28;20057;-72
2021/01/09 06:59:31;;;;;;;43.13;19.13;;;;;;;-0.88;78.63;96533.66;5049752;28;20488;-72
2021/01/09 07:02:16;;;;;;;33.35;15.75;;;;;;;-0.80;78.52;96530.56;5049940;28;20048;-72
2021/01/09 07:05:05;;;;;;;40.25;18.80;;;;;;;-0.89;78.99;96541.88;5049750;28;20136;-72
2021/01/09 07:07:36;;;;;;;41.60;19.27;;;;;;;-0.80;78.60;96540.44;5040054;28;20041;-72
2021/01/09 07:10:17;;;;;;;41.85;20.08;;;;;;;-0.71;78.35;96543.53;5049015;28;20049;-72
2021/01/09 07:12:50;;;;;;;35.38;18.25;;;;;;;-0.62;78.14;96539.44;5050393;28;20053;-72
2021/01/09 07:15:18;;;;;;;40.22;18.40;;;;;;;-0.63;77.97;96541.25;5049573;28;20087;-72
2021/01/09 07:17:50;;;;;;;36.20;18.58;;;;;;;-0.56;77.97;96546.47;5049926;28;20068;-71
2021/01/09 07:20:18;;;;;;;38.88;17.92;;;;;;;-0.51;77.93;96554.59;5049772;28;20124;-72
2021/01/09 07:22:47;;;;;;;38.67;19.23;;;;;;;-0.44;77.77;96544.53;5049378;28;20053;-72
2021/01/09 07:25:13;;;;;;;40.38;18.20;;;;;;;-0.38;77.32;96548.91;5049882;28;20041;-71
2021/01/09 07:27:42;;;;;;;37.28;18.15;;;;;;;-0.37;77.26;96549.69;5049231;28;20045;-72
2021/01/09 07:30:12;;;;;;;37.47;18.20;;;;;;;-0.33;77.18;96557.00;5050068;28;20118;-72
2021/01/09 07:32:43;;;;;;;37.72;17.42;;;;;;;-0.31;77.15;96560.28;5049125;28;20041;-72
2021/01/09 07:35:09;;;;;;;35.22;18.13;;;;;;;-0.24;76.95;96549.38;5050007;28;20094;-72
2021/01/09 07:37:38;;;;;;;37.45;18.70;;;;;;;-0.21;77.03;96556.09;5049620;28;20071;-71
2021/01/09 07:40:12;;;;;;;37.05;17.95;;;;;;;-0.24;76.66;96553.94;5049137;28;20730;-72
2021/01/09 07:42:38;;;;;;;37.75;18.73;;;;;;;-0.21;76.75;96561.47;5049945;28;20069;-72
2021/01/09 07:45:06;;;;;;;35.35;17.45;;;;;;;-0.15;76.41;96563.19;5048651;28;20578;-72
2021/01/09 07:47:37;;;;;;;34.80;17.50;;;;;;;-0.16;75.80;96562.34;5050119;28;20044;-72
2021/01/09 07:50:04;;;;;;;35.17;17.33;;;;;;;-0.27;75.86;96565.91;5048698;28;20049;-72
2021/01/09 07:52:33;;;;;;;40.60;19.55;;;;;;;-0.36;76.52;96565.53;5050044;28;20052;-72
2021/01/09 07:54:59;;;;;;;41.28;17.95;;;;;;;-0.23;76.53;96566.25;5049102;28;20541;-71
2021/01/09 07:57:25;;;;;;;33.60;16.90;;;;;;;-0.16;76.27;96566.88;5049327;28;20041;-72
2021/01/09 08:00:16;;;;;;;39.80;19.20;;;;;;;-0.19;76.44;96570.88;5049416;28;20053;-72
2021/01/09 08:02:46;;;;;;;39.95;18.92;;;;;;;-0.40;76.91;96576.97;5048835;28;20551;-72
2021/01/09 08:05:14;;;;;;;35.78;18.40;;;;;;;-0.26;76.97;96572.91;5054486;28;20102;-73
2021/01/09 08:07:42;;;;;;;37.78;19.10;;;;;;;-0.28;77.02;96580.38;5063446;28;20049;-72
2021/01/09 08:10:29;;;;;;;38.60;18.30;;;;;;;-0.21;76.86;96581.00;5067327;28;20052;-72
2021/01/09 08:12:58;;;;;;;37.85;18.70;;;;;;;-0.16;76.76;96588.31;5070173;28;20059;-73
2021/01/09 08:15:25;;;;;;;39.53;19.40;;;;;;;-0.07;76.61;96586.84;5069251;28;20048;-73
2021/01/09 08:17:52;;;;;;;39.25;19.38;;;;;;;0.06;76.54;96589.19;5068026;28;20048;-72
2021/01/09 08:20:19;;;;;;;36.17;18.00;;;;;;;0.18;76.29;96589.91;5068847;28;20122;-73
2021/01/09 08:22:53;;;;;;;35.97;17.60;;;;;;;0.28;75.43;96593.78;5069976;28;20571;-73
2021/01/09 08:25:20;;;;;;;35.72;18.35;;;;;;;0.22;75.31;96585.69;5068229;28;20139;-73
2021/01/09 08:27:49;;;;;;;35.10;17.48;;;;;;;0.29;74.90;96600.75;5069880;28;20056;-73
2021/01/09 08:30:17;;;;;;;38.72;19.25;;;;;;;0.21;74.57;96599.31;5068473;28;20486;-73
2021/01/09 08:32:44;;;;;;;32.60;16.67;;;;;;;0.23;75.04;96598.00;5069696;28;20048;-73
2021/01/09 08:35:13;;;;;;;36.83;18.17;;;;;;;-0.07;75.37;96602.91;5059923;28;20048;-74
2021/01/09 08:37:40;;;;;;;37.20;18.00;;;;;;;-0.04;75.89;96597.88;5067953;28;20072;-74
2021/01/09 08:40:14;;;;;;;33.03;16.88;;;;;;;0.10;75.44;96603.69;5067673;28;20059;-73
2021/01/09 08:43:00;;;;;;;35.42;17.80;;;;;;;0.13;75.50;96603.22;5068759;28;20457;-73
2021/01/09 08:45:46;;;;;;;34.45;18.08;;;;;;;0.19;75.16;96607.59;5059783;28;20048;-74
2021/01/09 08:48:15;;;;;;;42.63;18.90;;;;;;;0.04;75.72;96615.38;5068244;28;20094;-73
2021/01/09 08:50:46;;;;;;;34.97;16.92;;;;;;;0.06;75.14;96605.25;5069314;28;20079;-73
2021/01/09 08:53:15;;;;;;;36.80;18.33;;;;;;;0.13;75.21;96613.94;5068492;28;20040;-73
2021/01/09 08:55:42;;;;;;;36.65;18.40;;;;;;;0.07;75.08;96609.56;5068472;28;20574;-73
2021/01/09 08:58:11;;;;;;;33.80;16.70;;;;;;;-0.01;75.30;96618.78;5068703;28;20121;-73
2021/01/09 09:00:38;;;;;;;37.97;18.23;;;;;;;0.20;75.23;96619.09;5068275;28;20052;-73
2021/01/09 09:03:07;;;;;;;33.13;17.17;;;;;;;0.36;74.96;96622.81;5068831;28;20041;-73
2021/01/09 09:05:33;;;;;;;35.20;17.48;;;;;;;0.48;74.38;96618.19;5048410;28;20519;-73
2021/01/09 09:08:03;;;;;;;37.65;17.30;;;;;;;0.36;73.52;96617.47;5040783;28;20081;-73
2021/01/09 09:10:31;;;;;;;37.10;16.60;;;;;;;0.09;74.23;96623.50;5040489;28;20045;-73
2021/01/09 09:13:22;;;;;;;36.50;16.65;;;;;;;0.21;74.48;96620.75;5048513;28;20063;-73
2021/01/09 09:15:49;;;;;;;32.95;17.40;;;;;;;0.38;74.56;96626.06;5036790;28;20050;-73
2021/01/09 09:18:16;;;;;;;33.30;16.55;;;;;;;0.47;74.53;96630.78;5038213;28;20057;-73
2021/01/09 09:20:50;;;;;;;34.95;17.15;;;;;;;0.57;74.35;96630.06;5040873;28;20056;-73
2021/01/09 09:23:24;;;;;;;37.10;16.90;;;;;;;0.63;74.15;96633.66;5036762;28;20064;-73
2021/01/09 09:26:08;;;;;;;31.95;16.38;;;;;;;0.28;74.41;96625.94;5036623;28;20842;-73
2021/01/09 09:28:50;;;;;;;32.45;16.30;;;;;;;0.34;75.09;96630.28;5036540;28;20103;-73
2021/01/09 09:31:22;;;;;;;34.40;16.80;;;;;;;0.46;75.11;96631.00;5036288;28;20068;-73
2021/01/09 09:34:05;;;;;;;36.03;17.30;;;;;;;0.62;75.01;96632.00;5040390;28;20052;-73
2021/01/09 09:36:33;;;;;;;31.83;16.52;;;;;;;0.67;74.30;96632.88;5047362;28;20094;-73
2021/01/09 09:39:10;;;;;;;29.45;16.27;;;;;;;0.77;74.26;96624.16;5048459;28;20052;-73
2021/01/09 09:41:50;;;;;;;33.30;16.08;;;;;;;0.83;73.70;96627.72;5047350;28;20156;-73
2021/01/09 09:44:17;;;;;;;29.65;15.68;;;;;;;0.85;73.25;96628.31;5047491;28;20416;-73
2021/01/09 09:46:43;;;;;;;31.83;15.75;;;;;;;0.84;73.05;96634.72;5047589;28;20053;-73
2021/01/09 09:49:11;;;;;;;32.10;16.38;;;;;;;0.71;73.63;96635.91;5047176;28;20060;-73
2021/01/09 09:51:37;;;;;;;30.40;15.43;;;;;;;0.67;73.50;96635.56;5048152;28;20063;-73
2021/01/09 09:54:04;;;;;;;32.00;15.30;;;;;;;0.63;72.84;96639.03;5047020;28;20053;-72
2021/01/09 09:56:36;;;;;;;32.83;15.25;;;;;;;0.68;72.96;96621.13;5048003;28;20041;-73
2021/01/09 09:59:04;;;;;;;27.30;15.50;;;;;;;0.52;73.36;96632.69;5046893;28;20068;-73
2021/01/09 10:01:30;;;;;;;33.28;15.90;;;;;;;0.67;73.51;96616.81;5047948;28;20087;-73
2021/01/09 10:03:57;;;;;;;31.42;15.30;;;;;;;0.83;73.50;96617.00;5047534;28;20044;-73
2021/01/09 10:06:33;;;;;;;27.38;14.70;;;;;;;0.96;72.98;96616.63;5047672;28;20060;-73
2021/01/09 10:09:13;;;;;;;29.48;14.15;;;;;;;1.06;72.32;96610.59;5048152;28;20056;-72
2021/01/09 10:11:39;;;;;;;29.50;15.20;;;;;;;1.05;71.25;96612.47;5046907;28;20052;-73
2021/01/09 10:14:05;;;;;;;28.45;14.32;;;;;;;1.06;71.16;96603.34;5047467;28;20057;-73
2021/01/09 10:16:32;;;;;;;30.60;15.15;;;;;;;1.13;71.03;96605.81;5046946;28;20055;-73
2021/01/09 10:18:58;;;;;;;29.48;14.18;;;;;;;1.16;70.93;96600.78;5047910;28;20420;-73
2021/01/09 10:21:27;;;;;;;30.52;14.57;;;;;;;1.24;71.11;96603.00;5046332;28;20049;-73
2021/01/09 10:23:53;;;;;;;28.08;15.02;;;;;;;1.30;70.89;96602.00;5047490;28;20048;-73
2021/01/09 10:26:25;;;;;;;29.00;14.05;;;;;;;1.35;70.25;96600.41;5046678;28;20052;-74
2021/01/09 10:28:51;;;;;;;33.50;15.05;;;;;;;1.41;70.14;96602.09;5047168;28;20122;-73
2021/01/09 10:31:17;;;;;;;27.83;14.15;;;;;;;1.44;69.73;96597.03;5046824;28;20135;-73
2021/01/09 10:33:43;;;;;;;25.75;14.57;;;;;;;1.43;69.45;96589.25;5045871;28;20083;-73
2021/01/09 10:36:09;;;;;;;28.83;15.10;;;;;;;1.45;69.78;96581.75;5047387;28;20630;-73
2021/01/09 10:38:35;;;;;;;32.78;16.10;;;;;;;1.59;70.30;96587.50;5046606;28;20499;-73
2021/01/09 10:41:01;;;;;;;29.95;15.55;;;;;;;1.62;69.88;96577.09;5047309;28;20049;-73
2021/01/09 10:43:28;;;;;;;32.20;16.08;;;;;;;1.66;69.72;96583.53;5046624;28;20780;-73
2021/01/09 10:45:54;;;;;;;31.92;15.85;;;;;;;1.71;69.89;96588.94;5047325;28;20052;-73
2021/01/09 10:48:20;;;;;;;27.02;14.52;;;;;;;1.75;69.84;96592.75;5046122;28;20048;-73
2021/01/09 10:50:46;;;;;;;30.02;15.30;;;;;;;1.82;69.66;96587.97;5046945;28;20404;-73
2021/01/09 10:53:12;;;;;;;32.42;16.63;;;;;;;1.87;69.54;96578.34;5046377;28;20416;-73
2021/01/09 10:55:40;;;;;;;28.67;15.80;;;;;;;1.94;69.52;96584.31;5046390;28;20496;-73
2021/01/09 10:58:06;;;;;;;31.83;16.35;;;;;;;1.97;68.77;96583.78;5046893;28;20053;-73
2021/01/09 11:00:33;;;;;;;33.10;16.92;;;;;;;2.01;68.24;96576.84;5046465;28;20056;-73
2021/01/09 11:02:59;;;;;;;31.17;16.52;;;;;;;2.02;67.78;96576.56;5047540;28;20049;-73
2021/01/09 11:05:29;;;;;;;34.88;17.20;;;;;;;1.89;68.41;96576.22;5045952;28;20175;-73
2021/01/09 11:07:55;;;;;;;30.98;16.38;;;;;;;1.87;68.42;96575.66;5047216;28;20587;-73
2021/01/09 11:10:21;;;;;;;33.45;17.13;;;;;;;1.87;68.07;96578.34;5046135;28;20053;-73
2021/01/09 11:12:47;;;;;;;31.98;16.65;;;;;;;1.82;67.98;96582.59;5047159;28;20763;-72
2021/01/09 11:15:14;;;;;;;30.90;16.73;;;;;;;1.82;68.20;96574.53;5046032;28;20118;-73
2021/01/09 11:17:41;;;;;;;35.83;17.33;;;;;;;1.78;68.09;96576.16;5046145;28;20049;-73
2021/01/09 11:20:08;;;;;;;31.52;16.83;;;;;;;1.75;68.09;96570.47;5045943;28;20057;-73
2021/01/09 11:22:34;;;;;;;39.58;18.48;;;;;;;1.82;68.64;96574.53;5046344;28;20053;-72
2021/01/09 11:25:00;;;;;;;34.40;17.38;;;;;;;2.01;67.92;96574.16;5046956;28;20060;-73
2021/01/09 11:27:26;;;;;;;33.85;17.80;;;;;;;2.13;67.24;96571.28;5045419;28;20051;-72
2021/01/09 11:29:51;;;;;;;31.27;18.38;;;;;;;2.16;67.40;96571.56;5047256;28;20115;-72